createdAt,value
2023-05-18T00:02:09.033Z,4.30
2023-05-18T00:04:36.812Z,4.45
2023-05-18T00:07:05.536Z,4.50
2023-05-18T00:09:34.300Z,6.30
2023-05-18T00:12:01.610Z,5.65
2023-05-18T00:14:29.210Z,5.85
2023-05-18T00:16:56.380Z,5.57
2023-05-18T00:19:24.242Z,6.00
2023-05-18T00:21:52.650Z,6.15
2023-05-18T00:24:19.828Z,5.30
2023-05-18T00:26:48.063Z,5.93
2023-05-18T00:29:15.950Z,4.70
2023-05-18T00:31:45.126Z,5.78
2023-05-18T00:34:13.619Z,5.47
2023-05-18T00:36:41.301Z,5.78
2023-05-18T00:39:09.353Z,5.97
2023-05-18T00:41:36.595Z,5.65
2023-05-18T00:44:05.086Z,5.57
2023-05-18T00:46:32.758Z,5.93
2023-05-18T00:49:02.047Z,6.22
2023-05-18T00:51:29.575Z,5.80
2023-05-18T00:53:57.051Z,5.30
2023-05-18T00:56:24.982Z,5.10
2023-05-18T00:58:58.488Z,5.97
2023-05-18T01:01:30.784Z,6.10
2023-05-18T01:04:02.289Z,6.07
2023-05-18T01:06:32.920Z,5.05
2023-05-18T01:09:04.580Z,5.57
2023-05-18T01:11:38.122Z,5.45
2023-05-18T01:14:05.402Z,4.80
2023-05-18T01:16:38.171Z,5.18
2023-05-18T01:19:14.126Z,5.30
2023-05-18T01:21:59.734Z,6.53
2023-05-18T01:24:38.788Z,5.25
2023-05-18T01:27:07.887Z,5.97
2023-05-18T01:29:35.250Z,4.80
2023-05-18T01:32:02.534Z,4.85
2023-05-18T01:34:29.643Z,5.70
2023-05-18T01:36:56.909Z,5.30
2023-05-18T01:39:24.065Z,4.60
2023-05-18T01:41:54.352Z,4.97
2023-05-18T01:44:27.066Z,5.32
2023-05-18T01:46:56.987Z,5.38
2023-05-18T01:49:50.492Z,5.43
2023-05-18T01:52:20.506Z,5.55
2023-05-18T01:54:53.386Z,5.80
2023-05-18T01:57:21.852Z,5.40
2023-05-18T01:59:49.339Z,5.15
2023-05-18T02:02:17.537Z,5.50
2023-05-18T02:04:44.780Z,5.75
2023-05-18T02:07:11.864Z,5.40
2023-05-18T02:09:39.082Z,5.32
2023-05-18T02:12:06.474Z,5.80
2023-05-18T02:14:33.871Z,6.63
2023-05-18T02:17:01.126Z,6.28
2023-05-18T02:19:30.891Z,6.20
2023-05-18T02:21:57.994Z,6.55
2023-05-18T02:24:25.397Z,6.68
2023-05-18T02:26:52.596Z,6.93
2023-05-18T02:29:19.692Z,7.80
2023-05-18T02:31:46.884Z,7.70
2023-05-18T02:34:15.426Z,7.82
2023-05-18T02:36:42.800Z,7.90
2023-05-18T02:39:10.526Z,7.50
2023-05-18T02:41:37.681Z,7.18
2023-05-18T02:44:05.284Z,7.22
2023-05-18T02:46:32.709Z,7.22
2023-05-18T02:49:00.049Z,7.13
2023-05-18T02:51:27.222Z,9.25
2023-05-18T02:53:54.437Z,6.47
2023-05-18T02:56:21.564Z,6.70
2023-05-18T02:58:48.699Z,6.93
2023-05-18T03:01:15.870Z,6.28
2023-05-18T03:03:43.279Z,5.72
2023-05-18T03:06:10.518Z,5.68
2023-05-18T03:08:37.722Z,6.32
2023-05-18T03:11:05.064Z,6.20
2023-05-18T03:13:32.251Z,6.28
2023-05-18T03:15:59.433Z,6.72
2023-05-18T03:18:26.596Z,6.95
2023-05-18T03:20:53.715Z,6.05
2023-05-18T03:23:21.254Z,6.63
2023-05-18T03:25:54.498Z,6.25
2023-05-18T03:28:22.465Z,5.78
2023-05-18T03:30:49.752Z,5.55
2023-05-18T03:33:17.221Z,4.78
2023-05-18T03:35:45.974Z,5.72
2023-05-18T03:38:14.187Z,5.35
2023-05-18T03:40:41.329Z,5.60
2023-05-18T03:43:08.488Z,5.82
2023-05-18T03:45:35.658Z,5.57
2023-05-18T03:48:02.978Z,6.20
2023-05-18T03:50:30.309Z,6.07
2023-05-18T03:52:57.439Z,5.90
2023-05-18T03:55:24.615Z,5.70
2023-05-18T03:57:53.612Z,5.53
2023-05-18T04:00:20.709Z,5.43
2023-05-18T04:02:51.836Z,5.65
2023-05-18T04:05:19.784Z,5.40
2023-05-18T04:07:46.946Z,6.00
2023-05-18T04:10:14.797Z,5.72
2023-05-18T04:12:42.008Z,5.35
2023-05-18T04:15:09.365Z,6.10
2023-05-18T04:17:36.685Z,6.38
2023-05-18T04:20:13.335Z,6.03
2023-05-18T04:22:46.266Z,7.22
2023-05-18T04:25:14.322Z,6.20
2023-05-18T04:27:42.058Z,6.20
2023-05-18T04:30:11.474Z,6.55
2023-05-18T04:32:39.394Z,5.82
2023-05-18T04:35:10.790Z,5.75
2023-05-18T04:37:40.415Z,6.38
2023-05-18T04:40:13.285Z,6.50
2023-05-18T04:42:48.007Z,6.45
2023-05-18T04:45:17.068Z,7.35
2023-05-18T04:47:46.506Z,7.15
2023-05-18T04:50:17.154Z,6.13
2023-05-18T04:52:50.905Z,7.05
2023-05-18T04:55:23.183Z,7.35
2023-05-18T04:57:51.080Z,6.68
2023-05-18T05:00:18.571Z,7.25
2023-05-18T05:02:45.995Z,6.90
2023-05-18T05:05:13.197Z,6.68
2023-05-18T05:07:40.370Z,6.38
2023-05-18T05:10:08.008Z,6.53
2023-05-18T05:12:37.052Z,6.38
2023-05-18T05:15:04.571Z,5.97
2023-05-18T05:17:31.857Z,6.40
2023-05-18T05:19:59.255Z,6.50
2023-05-18T05:22:26.450Z,6.10
2023-05-18T05:24:53.686Z,6.40
2023-05-18T05:27:21.006Z,6.53
2023-05-18T05:29:48.155Z,5.90
2023-05-18T05:32:15.277Z,6.03
2023-05-18T05:34:46.690Z,6.57
2023-05-18T05:37:13.885Z,6.93
2023-05-18T05:39:41.161Z,7.22
2023-05-18T05:42:08.803Z,7.95
2023-05-18T05:44:36.206Z,7.35
2023-05-18T05:47:04.107Z,8.52
2023-05-18T05:49:31.227Z,7.88
2023-05-18T05:51:58.356Z,7.70
2023-05-18T05:54:25.905Z,7.63
2023-05-18T05:56:53.085Z,8.05
2023-05-18T05:59:20.275Z,7.55
2023-05-18T06:01:47.470Z,7.47
2023-05-18T06:04:15.912Z,7.38
2023-05-18T06:06:43.972Z,7.45
2023-05-18T06:09:11.447Z,6.80
2023-05-18T06:11:38.594Z,6.75
2023-05-18T06:14:06.113Z,6.93
2023-05-18T06:16:33.357Z,6.93
2023-05-18T06:19:00.521Z,7.07
2023-05-18T06:21:27.766Z,7.38
2023-05-18T06:23:55.142Z,7.40
2023-05-18T06:26:22.952Z,5.93
2023-05-18T06:28:50.221Z,6.43
2023-05-18T06:31:18.960Z,6.53
2023-05-18T06:33:46.236Z,6.80
2023-05-18T06:36:13.607Z,6.55
2023-05-18T06:38:40.814Z,7.00
2023-05-18T06:41:08.071Z,5.55
2023-05-18T06:43:35.242Z,6.65
2023-05-18T06:46:02.477Z,6.38
2023-05-18T06:48:29.707Z,6.00
2023-05-18T06:50:56.917Z,6.18
2023-05-18T06:53:24.110Z,5.57
2023-05-18T06:55:51.226Z,6.40
2023-05-18T06:58:18.432Z,6.55
2023-05-18T07:00:45.925Z,6.43
2023-05-18T07:03:13.149Z,5.45
2023-05-18T07:05:40.351Z,6.38
2023-05-18T07:08:07.856Z,6.63
2023-05-18T07:10:35.841Z,6.20
2023-05-18T07:13:03.014Z,5.43
2023-05-18T07:15:30.487Z,5.43
2023-05-18T07:17:57.964Z,5.20
2023-05-18T07:20:26.488Z,5.55
2023-05-18T07:22:55.836Z,5.00
2023-05-18T07:25:23.350Z,5.68
2023-05-18T07:27:52.338Z,4.85
2023-05-18T07:30:19.610Z,5.22
2023-05-18T07:32:46.938Z,4.35
2023-05-18T07:35:14.186Z,5.03
2023-05-18T07:37:41.378Z,5.32
2023-05-18T07:40:10.364Z,5.55
2023-05-18T07:42:38.704Z,5.53
2023-05-18T07:45:06.287Z,5.28
2023-05-18T07:47:33.533Z,4.70
2023-05-18T07:50:00.680Z,4.75
2023-05-18T07:52:28.722Z,5.88
2023-05-18T07:54:57.228Z,5.28
2023-05-18T07:57:24.801Z,5.43
2023-05-18T07:59:51.955Z,5.70
2023-05-18T08:02:19.986Z,6.18
2023-05-18T08:04:48.225Z,6.05
2023-05-18T08:07:15.515Z,5.97
2023-05-18T08:09:42.707Z,5.70
2023-05-18T08:12:09.870Z,5.50
2023-05-18T08:14:37.050Z,5.45
2023-05-18T08:17:04.956Z,5.82
2023-05-18T08:19:32.240Z,6.30
2023-05-18T08:21:59.563Z,6.60
2023-05-18T08:24:26.696Z,5.78
2023-05-18T08:26:53.868Z,6.90
2023-05-18T08:29:21.303Z,6.82
2023-05-18T08:31:49.713Z,6.05
2023-05-18T08:34:17.120Z,5.55
2023-05-18T08:36:45.923Z,6.20
2023-05-18T08:39:13.337Z,6.50
2023-05-18T08:41:43.203Z,7.00
2023-05-18T08:44:12.562Z,6.53
2023-05-18T08:46:42.566Z,7.03
2023-05-18T08:49:10.979Z,8.35
2023-05-18T08:51:38.469Z,8.63
2023-05-18T08:54:06.333Z,8.18
2023-05-18T08:56:34.446Z,7.72
2023-05-18T08:59:04.891Z,7.45
2023-05-18T09:01:32.570Z,7.43
2023-05-18T09:04:00.694Z,9.50
2023-05-18T09:06:28.717Z,8.60
2023-05-18T09:08:58.962Z,9.00
2023-05-18T09:11:27.028Z,9.13
2023-05-18T09:13:55.208Z,8.75
2023-05-18T09:16:22.529Z,9.10
2023-05-18T09:18:49.757Z,9.23
2023-05-18T09:21:17.185Z,8.77
2023-05-18T09:23:44.875Z,9.13
2023-05-18T09:26:13.382Z,8.32
2023-05-18T09:28:43.931Z,8.30
2023-05-18T09:31:12.819Z,8.52
2023-05-18T09:33:41.421Z,9.75
2023-05-18T09:36:09.444Z,6.82
2023-05-18T09:38:38.063Z,6.82
2023-05-18T09:41:10.072Z,7.00
2023-05-18T09:43:37.270Z,6.32
2023-05-18T09:46:08.114Z,6.40
2023-05-18T09:48:38.856Z,6.80
2023-05-18T09:51:06.783Z,7.13
2023-05-18T09:53:40.025Z,7.18
2023-05-18T09:56:11.724Z,6.10
2023-05-18T09:58:40.216Z,6.20
2023-05-18T10:01:07.333Z,7.05
2023-05-18T10:03:37.615Z,6.88
2023-05-18T10:08:32.087Z,6.47
2023-05-18T10:10:59.247Z,6.40
2023-05-18T10:13:27.372Z,6.43
2023-05-18T10:15:56.847Z,6.57
2023-05-18T10:18:24.952Z,7.43
2023-05-18T10:20:53.431Z,7.45
2023-05-18T10:23:21.051Z,7.07
2023-05-18T10:25:49.423Z,7.07
2023-05-18T10:28:25.770Z,7.00
2023-05-18T10:30:54.487Z,7.47
2023-05-18T10:33:29.152Z,7.65
2023-05-18T10:35:57.518Z,7.68
2023-05-18T10:38:26.280Z,7.82
2023-05-18T10:40:54.348Z,6.50
2023-05-18T10:43:24.197Z,6.72
2023-05-18T10:45:55.314Z,6.22
2023-05-18T10:48:23.526Z,6.65
2023-05-18T10:50:51.618Z,7.75
2023-05-18T10:53:19.848Z,6.57
2023-05-18T10:55:48.083Z,6.95
2023-05-18T10:58:16.733Z,7.10
2023-05-18T11:00:45.286Z,6.47
2023-05-18T11:03:13.645Z,6.25
2023-05-18T11:05:41.507Z,6.38
2023-05-18T11:08:09.300Z,6.72
2023-05-18T11:10:41.008Z,6.07
2023-05-18T11:13:08.428Z,6.53
2023-05-18T11:15:59.430Z,7.03
2023-05-18T11:19:02.274Z,6.88
2023-05-18T11:21:31.026Z,7.10
2023-05-18T11:24:16.722Z,6.07
2023-05-18T11:26:44.358Z,5.95
2023-05-18T11:29:17.404Z,6.32
2023-05-18T11:31:49.126Z,6.63
2023-05-18T11:34:39.412Z,6.72
2023-05-18T11:37:10.166Z,6.60
2023-05-18T11:39:44.795Z,6.35
2023-05-18T11:42:19.321Z,6.75
2023-05-18T11:44:53.072Z,7.50
2023-05-18T11:47:20.347Z,6.50
2023-05-18T11:49:48.296Z,5.72
2023-05-18T11:52:24.992Z,6.15
2023-05-18T11:54:56.241Z,7.97
2023-05-18T11:57:35.462Z,7.20
2023-05-18T12:00:07.922Z,10.48
2023-05-18T12:02:35.834Z,7.97
2023-05-18T12:05:03.776Z,5.80
2023-05-18T12:07:35.237Z,8.48
2023-05-18T12:10:07.701Z,7.55
2023-05-18T12:12:35.117Z,6.90
2023-05-18T12:15:03.236Z,6.47
2023-05-18T12:17:50.718Z,8.00
2023-05-18T12:20:21.815Z,7.70
2023-05-18T12:22:51.952Z,7.40
2023-05-18T12:25:19.759Z,6.55
2023-05-18T12:27:50.101Z,6.13
2023-05-18T12:30:24.413Z,6.18
2023-05-18T12:32:53.109Z,6.15
2023-05-18T12:35:26.804Z,6.32
2023-05-18T12:37:58.167Z,6.13
2023-05-18T12:40:25.308Z,6.20
2023-05-18T12:43:04.177Z,6.68
2023-05-18T12:45:32.355Z,6.50
2023-05-18T12:48:09.610Z,6.85
2023-05-18T12:50:38.734Z,6.38
2023-05-18T12:53:05.929Z,6.30
2023-05-18T12:55:33.718Z,6.50
2023-05-18T12:58:02.492Z,6.47
2023-05-18T13:00:33.846Z,6.32
2023-05-18T13:03:13.842Z,6.68
2023-05-18T13:05:42.694Z,6.50
2023-05-18T13:08:09.928Z,6.43
2023-05-18T13:10:37.070Z,6.53
2023-05-18T13:13:04.453Z,6.10
2023-05-18T13:15:35.675Z,6.03
2023-05-18T13:18:04.259Z,6.75
2023-05-18T13:20:33.321Z,6.68
2023-05-18T13:23:06.588Z,7.07
2023-05-18T13:25:34.030Z,5.93
2023-05-18T13:28:02.523Z,6.38
2023-05-18T13:30:29.922Z,6.00
2023-05-18T13:32:57.711Z,6.55
2023-05-18T13:35:25.002Z,6.35
2023-05-18T13:37:52.606Z,6.43
2023-05-18T13:40:20.928Z,6.70
2023-05-18T13:42:48.349Z,6.05
2023-05-18T13:45:16.408Z,6.28
2023-05-18T13:47:45.923Z,6.30
2023-05-18T13:50:13.266Z,6.20
2023-05-18T13:52:40.577Z,5.93
2023-05-18T13:55:09.497Z,5.85
2023-05-18T13:57:37.683Z,6.55
2023-05-18T14:00:13.236Z,6.85
2023-05-18T14:02:44.194Z,6.30
2023-05-18T14:05:11.626Z,6.63
2023-05-18T14:07:39.466Z,6.47
2023-05-18T14:10:07.173Z,6.88
2023-05-18T14:12:34.545Z,7.03
2023-05-18T14:15:01.871Z,6.40
2023-05-18T14:17:32.574Z,6.95
2023-05-18T14:20:00.159Z,6.95
2023-05-18T14:22:27.587Z,6.43
2023-05-18T14:24:54.773Z,7.00
2023-05-18T14:27:21.916Z,6.72
2023-05-18T14:29:51.049Z,7.03
2023-05-18T14:32:20.689Z,6.82
2023-05-18T14:34:51.538Z,6.70
2023-05-18T14:37:18.948Z,6.28
2023-05-18T14:39:46.164Z,6.88
2023-05-18T14:42:13.394Z,6.55
2023-05-18T14:44:40.542Z,6.45
2023-05-18T14:47:07.891Z,6.93
2023-05-18T14:49:35.111Z,7.03
2023-05-18T14:52:02.223Z,6.22
2023-05-18T14:54:29.376Z,6.82
2023-05-18T14:56:56.717Z,6.63
2023-05-18T14:59:23.898Z,7.65
2023-05-18T15:01:51.124Z,7.40
2023-05-18T15:04:19.302Z,8.48
2023-05-18T15:06:47.095Z,7.25
2023-05-18T15:09:15.054Z,7.35
2023-05-18T15:11:42.297Z,6.85
2023-05-18T15:14:09.445Z,7.22
2023-05-18T15:16:36.650Z,7.13
2023-05-18T15:19:05.215Z,6.82
2023-05-18T15:21:32.403Z,7.55
2023-05-18T15:23:59.540Z,8.18
2023-05-18T15:26:26.974Z,6.85
2023-05-18T15:28:54.155Z,7.05
2023-05-18T15:31:21.390Z,7.03
2023-05-18T15:33:48.829Z,6.47
2023-05-18T15:36:16.080Z,7.05
2023-05-18T15:38:43.203Z,7.32
2023-05-18T15:41:10.720Z,7.20
2023-05-18T15:43:39.073Z,7.13
2023-05-18T15:46:06.278Z,7.00
2023-05-18T15:48:33.642Z,7.45
2023-05-18T15:51:00.804Z,6.80
2023-05-18T15:53:27.998Z,7.38
2023-05-18T15:55:58.740Z,7.18
2023-05-18T15:58:26.887Z,7.88
2023-05-18T16:00:54.280Z,7.78
2023-05-18T16:03:21.612Z,7.70
2023-05-18T16:05:48.881Z,7.20
2023-05-18T16:08:16.015Z,7.38
2023-05-18T16:10:43.236Z,7.35
2023-05-18T16:13:10.338Z,7.88
2023-05-18T16:15:37.654Z,7.18
2023-05-18T16:18:05.459Z,7.72
2023-05-18T16:20:32.890Z,7.88
2023-05-18T16:23:00.302Z,7.10
2023-05-18T16:25:28.827Z,7.38
2023-05-18T16:27:56.390Z,7.65
2023-05-18T16:30:23.664Z,7.53
2023-05-18T16:32:50.949Z,7.82
2023-05-18T16:35:18.141Z,7.15
2023-05-18T16:37:45.320Z,7.80
2023-05-18T16:40:12.609Z,6.78
2023-05-18T16:42:39.718Z,6.57
2023-05-18T16:45:07.006Z,7.53
2023-05-18T16:47:34.242Z,6.47
2023-05-18T16:50:01.527Z,7.25
2023-05-18T16:52:28.703Z,6.65
2023-05-18T16:54:56.027Z,6.05
2023-05-18T16:57:25.305Z,6.65
2023-05-18T17:02:21.036Z,6.07
2023-05-18T17:04:50.407Z,6.03
2023-05-18T17:07:17.657Z,5.78
2023-05-18T17:09:45.054Z,6.05
2023-05-18T17:12:12.693Z,5.55
2023-05-18T17:14:39.987Z,5.90
2023-05-18T17:17:07.916Z,5.78
2023-05-18T17:19:35.337Z,5.97
2023-05-18T17:22:03.085Z,5.75
2023-05-18T17:24:30.316Z,6.50
2023-05-18T17:26:57.442Z,5.97
2023-05-18T17:29:24.561Z,6.20
2023-05-18T17:31:51.767Z,5.88
2023-05-18T17:34:18.894Z,6.35
2023-05-18T17:36:46.560Z,7.00
2023-05-18T17:39:15.810Z,6.53
2023-05-18T17:41:43.808Z,6.60
2023-05-18T17:44:14.553Z,6.63
2023-05-18T17:49:09.309Z,7.47
2023-05-18T17:51:36.887Z,6.97
2023-05-18T17:54:04.303Z,6.55
2023-05-18T17:56:31.791Z,7.45
2023-05-18T17:58:59.589Z,6.75
2023-05-18T18:01:27.098Z,6.90
2023-05-18T18:03:55.097Z,7.07
2023-05-18T18:06:22.846Z,7.22
2023-05-18T18:08:50.480Z,7.43
2023-05-18T18:11:17.810Z,7.25
2023-05-18T18:13:44.926Z,7.55
2023-05-18T18:16:12.189Z,7.22
2023-05-18T18:18:39.454Z,7.88
2023-05-18T18:21:06.770Z,7.15
2023-05-18T18:23:34.620Z,7.10
2023-05-18T18:26:02.126Z,7.30
2023-05-18T18:28:29.373Z,7.07
2023-05-18T18:30:57.237Z,7.45
2023-05-18T18:33:27.494Z,7.38
2023-05-18T18:35:55.935Z,7.82
2023-05-18T18:38:23.561Z,7.85
2023-05-18T18:40:50.732Z,7.80
2023-05-18T18:43:17.839Z,7.20
2023-05-18T18:45:45.028Z,8.00
2023-05-18T18:48:12.225Z,8.32
2023-05-18T18:50:39.445Z,9.13
2023-05-18T18:53:06.623Z,10.30
2023-05-18T18:55:34.003Z,11.55
2023-05-18T18:58:01.426Z,12.40
2023-05-18T19:00:28.634Z,13.48
2023-05-18T19:02:56.039Z,15.27
2023-05-18T19:05:24.343Z,15.68
2023-05-18T19:07:55.150Z,15.57
2023-05-18T19:10:25.833Z,16.17
2023-05-18T19:12:52.973Z,17.23
2023-05-18T19:15:21.477Z,14.70
2023-05-18T19:17:53.548Z,15.27
2023-05-18T19:20:20.930Z,15.82
2023-05-18T19:22:48.161Z,14.48
2023-05-18T19:25:15.313Z,14.80
2023-05-18T19:27:42.423Z,14.23
2023-05-18T19:30:11.009Z,13.32
2023-05-18T19:32:38.260Z,12.25
2023-05-18T19:35:05.456Z,12.48
2023-05-18T19:37:32.669Z,11.73
2023-05-18T19:39:59.750Z,12.75
2023-05-18T19:42:26.916Z,11.90
2023-05-18T19:44:54.096Z,11.15
2023-05-18T19:47:21.351Z,10.65
2023-05-18T19:49:48.425Z,11.65
2023-05-18T19:52:18.271Z,10.63
2023-05-18T19:54:45.453Z,10.48
2023-05-18T19:57:12.639Z,9.68
2023-05-18T19:59:39.752Z,9.70
2023-05-18T20:02:06.964Z,9.95
2023-05-18T20:04:34.572Z,9.50
2023-05-18T20:07:01.917Z,9.52
2023-05-18T20:09:29.362Z,9.93
2023-05-18T20:11:56.649Z,9.60
2023-05-18T20:14:24.146Z,8.90
2023-05-18T20:16:56.211Z,9.10
2023-05-18T20:19:23.565Z,8.25
2023-05-18T20:21:50.867Z,9.77
2023-05-18T20:24:17.981Z,9.10
2023-05-18T20:26:45.201Z,9.80
2023-05-18T20:29:12.409Z,8.82
2023-05-18T20:31:40.216Z,9.65
2023-05-18T20:34:07.393Z,9.27
2023-05-18T20:36:35.920Z,9.40
2023-05-18T20:39:03.856Z,8.27
2023-05-18T20:41:31.018Z,9.02
2023-05-18T20:44:01.995Z,9.00
2023-05-18T20:46:31.118Z,8.90
2023-05-18T20:48:58.467Z,8.90
2023-05-18T20:51:25.848Z,8.93
2023-05-18T20:53:52.991Z,9.10
2023-05-18T20:56:21.781Z,8.20
2023-05-18T20:58:50.144Z,8.45
2023-05-18T21:01:18.520Z,9.38
2023-05-18T21:03:46.063Z,8.93
2023-05-18T21:06:14.047Z,9.15
2023-05-18T21:08:42.411Z,8.57
2023-05-18T21:11:09.628Z,9.10
2023-05-18T21:13:37.026Z,8.95
2023-05-18T21:16:06.717Z,9.15
2023-05-18T21:18:34.433Z,9.05
2023-05-18T21:21:02.427Z,8.75
2023-05-18T21:23:29.541Z,8.77
2023-05-18T21:25:57.149Z,8.73
2023-05-18T21:28:25.006Z,8.77
2023-05-18T21:30:52.314Z,9.20
2023-05-18T21:33:19.609Z,9.40
2023-05-18T21:35:46.910Z,9.23
2023-05-18T21:38:14.257Z,9.65
2023-05-18T21:40:43.572Z,9.20
2023-05-18T21:43:11.520Z,9.05
2023-05-18T21:45:39.102Z,9.32
2023-05-18T21:48:06.555Z,8.82
2023-05-18T21:50:36.713Z,9.02
2023-05-18T21:53:10.018Z,8.75
2023-05-18T21:55:37.243Z,9.30
2023-05-18T21:58:04.357Z,8.80
2023-05-18T22:00:31.697Z,9.20
2023-05-18T22:02:59.357Z,9.75
2023-05-18T22:05:26.596Z,9.50
2023-05-18T22:07:53.702Z,9.57
2023-05-18T22:10:21.303Z,9.45
2023-05-18T22:12:48.408Z,9.57
2023-05-18T22:15:17.093Z,9.50
2023-05-18T22:17:46.290Z,10.35
2023-05-18T22:20:13.521Z,9.70
2023-05-18T22:22:41.157Z,9.70
2023-05-18T22:25:08.536Z,9.63
2023-05-18T22:27:36.843Z,10.10
2023-05-18T22:30:05.219Z,9.60
2023-05-18T22:32:32.562Z,10.85
2023-05-18T22:35:00.762Z,8.82
2023-05-18T22:37:27.989Z,9.77
2023-05-18T22:39:55.199Z,10.88
2023-05-18T22:42:22.373Z,10.18
2023-05-18T22:44:49.759Z,9.45
2023-05-18T22:47:20.060Z,10.02
2023-05-18T22:49:47.306Z,10.25
2023-05-18T22:52:14.493Z,11.05
2023-05-18T22:54:41.643Z,10.60
2023-05-18T22:57:08.995Z,10.82
2023-05-18T22:59:36.927Z,11.35
2023-05-18T23:02:07.042Z,11.07
2023-05-18T23:04:34.651Z,11.15
2023-05-18T23:07:04.070Z,11.50
2023-05-18T23:09:31.492Z,12.35
2023-05-18T23:12:01.243Z,12.13
2023-05-18T23:14:33.859Z,11.80
2023-05-18T23:17:01.270Z,11.80
2023-05-18T23:19:28.523Z,13.07
2023-05-18T23:21:56.078Z,11.80
2023-05-18T23:24:23.277Z,12.43
2023-05-18T23:26:50.421Z,11.35
2023-05-18T23:29:17.683Z,12.90
2023-05-18T23:31:44.944Z,12.32
2023-05-18T23:34:12.208Z,12.05
2023-05-18T23:36:42.545Z,12.55
2023-05-18T23:39:09.772Z,11.98
2023-05-18T23:41:37.185Z,11.80
2023-05-18T23:44:04.648Z,11.98
2023-05-18T23:46:31.868Z,11.50
2023-05-18T23:48:59.664Z,11.63
2023-05-18T23:51:29.877Z,11.50
2023-05-18T23:53:57.172Z,11.30
2023-05-18T23:56:24.916Z,11.05
2023-05-18T23:58:52.272Z,10.68
